Data for 02/11/2015

Time Sea-Level Adjusted Pressure Absolute Pressure Temperature Relative Humidity Dew Point   
(mb) (inHg) (mb) (inHg) (C) (F) (%) (C) (F)
00:05 1026 30.3 855 25.25 1.8 35.2 87 -0.2 31.7
00:10 1026 30.3 855 25.25 2 35.6 85 -0.2 31.6
00:15 1026 30.3 856 25.28 2 35.6 85 -0.2 31.6
00:20 1026 30.3 856 25.28 2 35.5 85 -0.2 31.6
00:25 1027 30.33 856 25.28 2 35.7 85 -0.2 31.7
00:30 1027 30.33 856 25.28 2.2 35.9 84 -0.2 31.6
00:35 1027 30.33 856 25.28 2.3 36.1 84 -0.2 31.7
00:40 1027 30.33 856 25.28 2.3 36.2 84 -0.2 31.7
00:45 1027 30.33 856 25.28 2.4 36.3 84 -0 31.9
00:50 1027 30.33 856 25.28 2.2 35.9 85 -0.1 31.8
00:55 1027 30.33 856 25.28 2.1 35.7 85 -0.2 31.7
01:00 1027 30.33 856 25.28 2.1 35.7 85 -0.2 31.7
01:05 1027 30.33 856 25.28 2.2 36 85 -0.1 31.9
01:10 1027 30.33 856 25.28 2.3 36.1 85 -0 32
01:15 1027 30.33 856 25.28 2.3 36.2 85 0 32.1
01:20 1027 30.33 856 25.28 2.3 36.1 85 -0.1 31.9
01:25 1027 30.33 857 25.31 2.1 35.8 85 -0.2 31.6
01:30 1027 30.33 857 25.31 2.2 36 83 -0.3 31.4
01:35 1027 30.33 857 25.31 2.2 36 82 -0.5 31.1
01:40 1027 30.33 857 25.31 2.4 36.2 81 -0.7 30.8
01:45 1027 30.33 857 25.31 2.4 36.3 80 -0.7 30.7
01:50 1027 30.33 857 25.31 2.4 36.4 80 -0.7 30.8
01:55 1027 30.33 857 25.31 2.5 36.4 80 -0.7 30.7
02:00 1027 30.33 857 25.31 2.5 36.5 79 -0.7 30.7
02:05 1027 30.33 857 25.31 2.4 36.3 80 -0.7 30.7
02:10 1028 30.36 857 25.31 2.4 36.3 79 -0.9 30.5
02:15 1027 30.33 857 25.31 2.5 36.5 79 -0.7 30.7
02:20 1027 30.33 857 25.31 2.5 36.4 80 -0.6 30.9
02:25 1027 30.33 857 25.31 2.5 36.5 80 -0.6 31
02:30 1027 30.33 857 25.31 2.6 36.7 81 -0.4 31.4
02:35 1027 30.33 857 25.31 2.4 36.4 80 -0.7 30.8
02:40 1027 30.33 857 25.31 2.6 36.7 79 -0.7 30.8
02:45 1027 30.33 857 25.31 2.8 37 77 -0.8 30.6
02:50 1028 30.36 857 25.31 3 37.4 77 -0.7 30.7
02:55 1028 30.36 857 25.31 3.1 37.6 76 -0.7 30.7
03:00 1028 30.36 857 25.31 3.3 37.9 76 -0.6 30.9
03:05 1027 30.33 857 25.31 3.3 38 76 -0.5 31
03:10 1027 30.33 857 25.31 3.3 37.9 74 -0.8 30.5
03:15 1027 30.33 857 25.31 3.3 38 76 -0.6 30.9
03:20 1027 30.33 856 25.28 3.2 37.7 75 -0.9 30.4
03:25 1027 30.33 856 25.28 3.3 37.9 72 -1.4 29.5
03:30 1027 30.33 856 25.28 3.8 38.8 70 -1.2 29.8
03:35 1027 30.33 856 25.28 3.8 38.9 69 -1.3 29.7
03:40 1027 30.33 856 25.28 3.7 38.6 71 -1.1 30
03:45 1027 30.33 856 25.28 3.3 38 76 -0.5 31.1
03:50 1027 30.33 856 25.28 2.6 36.8 79 -0.6 31
03:55 1026 30.3 856 25.28 2.2 36 81 -0.7 30.7
04:00 1026 30.3 856 25.28 1.8 35.3 84 -0.7 30.8
04:05 1026 30.3 856 25.28 1.7 35 84 -0.8 30.6
04:10 1026 30.3 856 25.28 1.7 35 84 -0.8 30.6
04:15 1026 30.3 856 25.28 1.8 35.3 83 -0.8 30.6
04:20 1026 30.3 856 25.28 1.9 35.4 82 -0.8 30.6
04:25 1026 30.3 856 25.28 2 35.5 82 -0.7 30.7
04:30 1026 30.3 856 25.28 1.9 35.4 82 -0.8 30.5
04:35 1026 30.3 855 25.25 2 35.5 82 -0.8 30.6
04:40 1026 30.3 855 25.25 1.9 35.4 83 -0.8 30.6
04:45 1026 30.3 855 25.25 1.9 35.3 82 -0.9 30.5
04:50 1026 30.3 855 25.25 1.9 35.4 81 -0.9 30.3
04:55 1026 30.3 855 25.25 2.1 35.7 80 -1 30.3
05:00 1026 30.3 855 25.25 2.1 35.7 80 -1 30.2
05:05 1026 30.3 855 25.25 2 35.6 81 -0.9 30.3
05:10 1026 30.3 855 25.25 1.7 35.1 82 -1.1 30
05:15 1026 30.3 855 25.25 1.6 34.8 82 -1.1 30
05:20 1026 30.3 855 25.25 1.4 34.6 82 -1.3 29.7
05:25 1026 30.3 855 25.25 1.4 34.5 83 -1.2 29.9
05:30 1026 30.3 855 25.25 1.4 34.5 82 -1.4 29.5
05:35 1026 30.3 855 25.25 1.4 34.4 81 -1.5 29.3
05:40 1026 30.3 855 25.25 1.4 34.5 80 -1.6 29
05:45 1026 30.3 855 25.25 1.3 34.4 82 -1.5 29.3
05:50 1026 30.3 855 25.25 1.2 34.1 82 -1.7 29
05:55 1026 30.3 855 25.25 0.8 33.4 84 -1.6 29.1
06:00 1026 30.3 855 25.25 0.5 32.9 85 -1.7 29
06:05 1026 30.3 855 25.25 0.3 32.6 86 -1.8 28.8
06:10 1026 30.3 856 25.28 0.4 32.8 84 -1.9 28.5
06:15 1026 30.3 856 25.28 0.4 32.7 85 -1.9 28.6
06:20 1026 30.3 856 25.28 0.2 32.4 85 -2 28.3
06:25 1026 30.3 856 25.28 0.2 32.3 84 -2.2 28.1
06:30 1027 30.33 856 25.28 0.4 32.8 82 -2.3 27.9
06:35 1027 30.33 856 25.28 0.7 33.3 79 -2.5 27.6
06:40 1027 30.33 856 25.28 1.1 34 76 -2.6 27.3
06:45 1027 30.33 856 25.28 1 33.8 76 -2.8 27
06:50 1027 30.33 856 25.28 1 33.9 76 -2.8 26.9
06:55 1027 30.33 856 25.28 0.9 33.6 76 -2.9 26.8
07:00 1027 30.33 856 25.28 0.9 33.6 75 -3.1 26.5
07:05 1027 30.33 856 25.28 0.8 33.4 77 -2.8 27
07:10 1027 30.33 856 25.28 0.7 33.3 76 -3 26.7
07:15 1027 30.33 857 25.31 0.7 33.2 76 -3.1 26.4
07:20 1028 30.36 857 25.31 0.7 33.3 75 -3.3 26.1
07:25 1028 30.36 857 25.31 0.8 33.5 75 -3.2 26.3
07:30 1028 30.36 857 25.31 1.2 34.1 74 -3 26.7
07:35 1028 30.36 857 25.31 1 33.8 73 -3.2 26.2
07:40 1028 30.36 857 25.31 1.1 33.9 73 -3.2 26.2
07:45 1028 30.36 857 25.31 1.1 34.1 74 -3 26.6
07:50 1028 30.36 857 25.31 1 33.8 74 -3.1 26.4
07:55 1028 30.36 857 25.31 0.6 33 77 -3 26.5
08:00 1028 30.36 857 25.31 -0.1 31.8 79 -3.3 26.1
08:05 1028 30.36 857 25.31 -0.5 31 82 -3.3 26.1
08:10 1028 30.36 857 25.31 -0.4 31.3 80 -3.4 25.9
08:15 1028 30.36 857 25.31 -0.4 31.2 80 -3.4 25.8
08:20 1028 30.36 857 25.31 -0.3 31.4 80 -3.5 25.8
08:25 1028 30.36 857 25.31 -0.3 31.5 79 -3.4 25.8
08:30 1028 30.36 857 25.31 -0.2 31.6 78 -3.6 25.6
08:35 1028 30.36 857 25.31 -0.2 31.6 78 -3.5 25.6
08:40 1028 30.36 857 25.31 -0.1 31.7 77 -3.7 25.4
08:45 1028 30.36 857 25.31 -0 31.9 77 -3.7 25.4
08:50 1028 30.36 857 25.31 0 32.1 77 -3.5 25.6
08:55 1028 30.36 857 25.31 -0.1 31.8 77 -3.6 25.5
09:00 1028 30.36 857 25.31 -0.1 31.9 76 -3.9 25
09:05 1028 30.36 857 25.31 0.3 32.6 75 -3.7 25.4
09:10 1028 30.36 857 25.31 0.4 32.8 74 -3.6 25.5
09:15 1028 30.36 857 25.31 0.3 32.5 75 -3.7 25.4
09:20 1028 30.36 857 25.31 0.1 32.2 75 -3.8 25.2
09:25 1028 30.36 857 25.31 0.5 32.8 74 -3.7 25.4
09:30 1028 30.36 857 25.31 1.2 34.2 71 -3.4 25.9
09:35 1028 30.36 857 25.31 1.4 34.5 71 -3.2 26.2
09:40 1028 30.36 857 25.31 1.2 34.2 71 -3.5 25.7
09:45 1028 30.36 857 25.31 1.9 35.4 68 -3.4 25.9
09:50 1028 30.36 857 25.31 2 35.7 69 -3.1 26.4
09:55 1028 30.36 857 25.31 2.3 36.2 66 -3.3 26
10:00 1028 30.36 857 25.31 2.6 36.7 66 -3.1 26.4
10:05 1028 30.36 857 25.31 3.1 37.6 64 -3 26.7
10:10 1028 30.36 857 25.31 2.6 36.7 68 -2.8 27
10:15 1028 30.36 857 25.31 2.9 37.2 65 -3 26.5
10:20 1028 30.36 857 25.31 3.3 38 65 -2.6 27.4
10:25 1028 30.36 857 25.31 3.9 39 63 -2.5 27.4
10:30 1028 30.36 857 25.31 4.2 39.5 63 -2.2 28
10:35 1028 30.36 857 25.31 4.4 39.9 62 -2.2 28
10:40 1028 30.36 858 25.34 4.4 39.9 62 -2.3 27.9
10:45 1028 30.36 858 25.34 4.6 40.3 62 -2.1 28.3
10:50 1029 30.39 858 25.34 4.8 40.6 61 -2 28.4
10:55 1029 30.39 858 25.34 5.1 41.3 61 -1.8 28.7
11:00 1029 30.39 858 25.34 5.7 42.3 57 -2.2 28
11:05 1029 30.39 858 25.34 5.9 42.6 55 -2.4 27.8
11:10 1029 30.39 858 25.34 6.2 43.2 54 -2.4 27.7
11:15 1029 30.39 858 25.34 6.6 43.9 54 -2.1 28.3
11:20 1029 30.39 858 25.34 6.8 44.3 53 -2.1 28.2
11:25 1029 30.39 858 25.34 6.8 44.3 54 -1.9 28.6
11:30 1029 30.39 858 25.34 6.6 43.9 56 -1.6 29.1
11:35 1029 30.39 858 25.34 6.9 44.4 52 -2.1 28.1
11:40 1029 30.39 858 25.34 7.3 45.2 51 -2.2 28.1
11:45 1029 30.39 858 25.34 7.8 46.1 52 -1.4 29.4
11:50 1029 30.39 858 25.34 7.8 46.1 50 -2.1 28.3
11:55 1029 30.39 858 25.34 7.6 45.7 52 -1.6 29.1
12:00 1029 30.39 858 25.34 6.6 43.9 53 -2.3 27.9
12:05 1029 30.39 858 25.34 5.9 42.6 55 -2.4 27.6
12:10 1029 30.39 858 25.34 6 42.9 55 -2.3 27.9
12:15 1029 30.39 858 25.34 7.1 44.7 52 -2 28.4
12:20 1028 30.36 858 25.34 7.7 45.9 48 -2.5 27.5
12:25 1028 30.36 858 25.34 7.9 46.3 47 -2.7 27.1
12:30 1029 30.39 858 25.34 7.6 45.6 46 -3.3 26.1
12:35 1028 30.36 858 25.34 7.8 46 47 -2.9 26.8
12:40 1028 30.36 858 25.34 8.1 46.6 46 -2.7 27.1
12:45 1028 30.36 858 25.34 7.7 45.8 46 -3.3 26
12:50 1028 30.36 857 25.31 7.9 46.3 44 -3.5 25.6
12:55 1028 30.36 857 25.31 8.9 48.1 41 -3.6 25.6
13:00 1028 30.36 857 25.31 9.2 48.5 44 -2.6 27.4
13:05 1028 30.36 857 25.31 8.9 47.9 40 -3.9 25
13:10 1028 30.36 857 25.31 9.2 48.5 43 -2.8 27
13:15 1028 30.36 857 25.31 8.4 47.2 44 -3.2 26.2
13:20 1027 30.33 857 25.31 9 48.1 40 -3.8 25.2
13:25 1027 30.33 857 25.31 9 48.1 42 -3.2 26.2
13:30 1027 30.33 856 25.28 9.1 48.3 39 -4.2 24.5
13:35 1027 30.33 856 25.28 10.3 50.5 37 -3.9 25
13:40 1027 30.33 856 25.28 10.5 51 35 -4.3 24.2
13:45 1027 30.33 856 25.28 9.5 49.2 38 -3.9 24.9
13:50 1027 30.33 856 25.28 9.6 49.3 36 -4.6 23.7
13:55 1027 30.33 856 25.28 10.4 50.7 35 -4.4 24
14:00 1027 30.33 856 25.28 10.6 51.1 33 -5.1 22.8
14:05 1027 30.33 856 25.28 10.3 50.6 34 -4.7 23.6
14:10 1027 30.33 856 25.28 9.8 49.6 34 -5.2 22.7
14:15 1027 30.33 856 25.28 10.5 50.9 33 -5.2 22.6
14:20 1026 30.3 856 25.28 10.5 50.9 34 -4.8 23.4
14:25 1026 30.3 855 25.25 11 51.7 31 -5.6 21.9
14:30 1026 30.3 855 25.25 10.7 51.3 31 -5.5 22
14:35 1026 30.3 855 25.25 10.2 50.4 32 -5.9 21.4
14:40 1026 30.3 855 25.25 11.5 52.6 29 -5.9 21.5
14:45 1026 30.3 855 25.25 12 53.7 28 -5.7 21.8
14:50 1026 30.3 856 25.28 11.6 52.8 29 -5.8 21.5
14:55 1026 30.3 856 25.28 10.9 51.5 31 -5.7 21.7
15:00 1026 30.3 856 25.28 11 51.7 29 -6.2 20.8
15:05 1026 30.3 855 25.25 11.7 53.1 28 -6.3 20.7
15:10 1026 30.3 855 25.25 11.2 52.2 30 -5.9 21.4
15:15 1026 30.3 855 25.25 12 53.6 28 -5.9 21.5
15:20 1026 30.3 855 25.25 12.4 54.3 28 -5.5 22
15:25 1026 30.3 855 25.25 11.9 53.4 29 -5.5 22
15:30 1026 30.3 855 25.25 12.3 54.1 29 -5.3 22.5
15:35 1026 30.3 855 25.25 12.3 54.1 29 -5.1 22.8
15:40 1026 30.3 855 25.25 10.9 51.6 32 -5.1 22.7
15:45 1026 30.3 855 25.25 10.8 51.4 31 -5.5 22.1
15:50 1026 30.3 855 25.25 11.7 53.1 30 -5.2 22.7
15:55 1026 30.3 855 25.25 12 53.6 30 -5.2 22.6
16:00 1026 30.3 855 25.25 11.8 53.3 30 -5.1 22.8
16:05 1026 30.3 855 25.25 12 53.6 30 -4.9 23.1
16:10 1026 30.3 855 25.25 11.9 53.4 31 -4.8 23.3
16:15 1026 30.3 855 25.25 11.5 52.7 31 -5 23.1
16:20 1026 30.3 855 25.25 11.9 53.3 30 -5.1 22.9
16:25 1026 30.3 855 25.25 12.3 54.1 30 -4.7 23.6
16:30 1026 30.3 855 25.25 12.2 53.9 30 -5 23
16:35 1026 30.3 855 25.25 12.2 53.9 30 -4.8 23.3
16:40 1026 30.3 855 25.25 12 53.6 31 -4.7 23.6
16:45 1026 30.3 855 25.25 11.3 52.3 31 -5.1 22.9
16:50 1026 30.3 855 25.25 10.9 51.6 33 -4.9 23.3
16:55 1026 30.3 855 25.25 11.2 52.2 31 -5.1 22.8
17:00 1026 30.3 855 25.25 11.3 52.3 32 -4.8 23.3
17:05 1026 30.3 855 25.25 11.4 52.5 31 -5.1 22.8
17:10 1026 30.3 855 25.25 11.9 53.4 30 -4.9 23.1
17:15 1026 30.3 855 25.25 11.9 53.4 31 -4.8 23.4
17:20 1026 30.3 855 25.25 11.3 52.4 33 -4.3 24.3
17:25 1026 30.3 855 25.25 10.2 50.4 34 -4.8 23.3
17:30 1026 30.3 855 25.25 10.1 50.2 33 -5.3 22.5
17:35 1026 30.3 855 25.25 9.9 49.9 33 -5.5 22.2
17:40 1026 30.3 855 25.25 9.5 49.1 34 -5.5 22.2
17:45 1025 30.27 855 25.25 9.1 48.4 36 -5.2 22.7
17:50 1025 30.27 855 25.25 9.1 48.3 35 -5.7 21.8
17:55 1025 30.27 855 25.25 9.5 49.2 33 -6 21.2
18:00 1025 30.27 855 25.25 10.1 50.1 31 -6.1 21
18:05 1025 30.27 855 25.25 10.1 50.2 32 -5.8 21.5
18:10 1025 30.27 854 25.22 9.9 49.7 33 -5.8 21.6
18:15 1025 30.27 854 25.22 9.7 49.5 33 -5.8 21.6
18:20 1025 30.27 854 25.22 9.7 49.5 33 -5.7 21.8
18:25 1025 30.27 854 25.22 9.4 48.9 34 -5.6 21.9
18:30 1025 30.27 854 25.22 9.2 48.6 35 -5.6 22
18:35 1025 30.27 854 25.22 8.9 48.1 37 -4.9 23.1
18:40 1025 30.27 854 25.22 8.8 47.8 40 -4 24.8
18:45 1025 30.27 854 25.22 8.5 47.3 41 -3.8 25.2
18:50 1025 30.27 854 25.22 8.3 47 43 -3.5 25.7
18:55 1025 30.27 854 25.22 8.1 46.5 45 -3.2 26.2
19:00 1025 30.27 854 25.22 7.6 45.7 49 -2.5 27.5
19:05 1025 30.27 854 25.22 6.9 44.5 49 -2.9 26.8
19:10 1025 30.27 854 25.22 6.5 43.8 51 -2.7 27.1
19:15 1025 30.27 854 25.22 6 42.9 53 -2.8 26.9
19:20 1025 30.27 854 25.22 5.8 42.5 54 -2.9 26.8
19:25 1025 30.27 854 25.22 5.4 41.7 54 -3.1 26.4
19:30 1025 30.27 854 25.22 5.2 41.4 54 -3.3 26.1
19:35 1025 30.27 854 25.22 5.2 41.4 55 -3.2 26.3
19:40 1025 30.27 854 25.22 5.2 41.3 55 -3.1 26.4
19:45 1025 30.27 854 25.22 5 41 56 -3 26.5
19:50 1025 30.27 854 25.22 4.9 40.8 57 -3 26.6
19:55 1025 30.27 854 25.22 4.7 40.4 57 -3 26.5
20:00 1025 30.27 854 25.22 4.7 40.4 57 -3.1 26.4
20:05 1025 30.27 854 25.22 4.7 40.5 57 -3.1 26.5
20:10 1025 30.27 854 25.22 4.5 40.2 58 -3.1 26.4
20:15 1025 30.27 854 25.22 4.4 39.9 58 -3.1 26.4
20:20 1025 30.27 854 25.22 4.2 39.5 59 -3.2 26.3
20:25 1025 30.27 854 25.22 3.9 39 61 -3 26.6
20:30 1025 30.27 855 25.25 3.7 38.6 61 -3 26.5
20:35 1025 30.27 855 25.25 3.5 38.3 62 -3.1 26.4
20:40 1025 30.27 855 25.25 3.4 38 62 -3.3 26
20:45 1025 30.27 855 25.25 3.4 38.1 61 -3.3 26
20:50 1025 30.27 855 25.25 3.3 37.9 62 -3.3 26
20:55 1025 30.27 854 25.22 3.1 37.7 62 -3.4 25.9
21:00 1025 30.27 854 25.22 3 37.5 62 -3.5 25.8
21:05 1025 30.27 854 25.22 3 37.4 63 -3.4 25.8
21:10 1025 30.27 854 25.22 2.9 37.3 63 -3.5 25.8
21:15 1025 30.27 854 25.22 2.8 37.1 63 -3.5 25.7
21:20 1025 30.27 854 25.22 2.8 37 63 -3.5 25.6
21:25 1025 30.27 854 25.22 2.8 37 63 -3.7 25.4
21:30 1025 30.27 854 25.22 2.8 37 62 -3.8 25.2
21:35 1025 30.27 854 25.22 2.7 36.9 62 -3.9 25
21:40 1025 30.27 854 25.22 2.8 37 61 -3.9 25
21:45 1025 30.27 854 25.22 2.8 37 60 -4.1 24.6
21:50 1025 30.27 854 25.22 3 37.4 58 -4.5 23.8
21:55 1025 30.27 854 25.22 3.3 37.9 57 -4.4 24.2
22:00 1025 30.27 854 25.22 3.2 37.7 58 -4.3 24.3
22:05 1025 30.27 854 25.22 3 37.3 59 -4.3 24.3
22:10 1025 30.27 854 25.22 2.8 37 59 -4.5 24
22:15 1025 30.27 854 25.22 2.8 37.1 58 -4.6 23.6
22:20 1025 30.27 854 25.22 2.9 37.3 57 -4.8 23.3
22:25 1025 30.27 854 25.22 3.3 37.9 57 -4.5 23.9
22:30 1025 30.27 854 25.22 3.2 37.8 56 -4.6 23.6
22:35 1025 30.27 854 25.22 3.4 38.2 54 -4.9 23.2
22:40 1025 30.27 854 25.22 3.6 38.4 53 -5 23
22:45 1025 30.27 854 25.22 3.8 38.8 53 -4.8 23.3
22:50 1025 30.27 854 25.22 3.8 38.9 53 -4.9 23.1
22:55 1025 30.27 854 25.22 3.8 38.8 53 -4.9 23.2
23:00 1025 30.27 854 25.22 3.5 38.3 55 -4.6 23.7
23:05 1025 30.27 854 25.22 3.1 37.6 57 -4.5 23.8
23:10 1025 30.27 854 25.22 3.3 37.9 54 -5.1 22.8
23:15 1025 30.27 854 25.22 3.6 38.4 56 -4.4 24.1
23:20 1025 30.27 854 25.22 3.2 37.8 58 -4.2 24.5
23:25 1025 30.27 854 25.22 3.1 37.5 57 -4.6 23.8
23:30 1025 30.27 854 25.22 3.4 38.2 55 -4.7 23.5
23:35 1025 30.27 854 25.22 3.4 38.2 56 -4.5 24
23:40 1025 30.27 854 25.22 3.3 37.9 56 -4.7 23.5
23:45 1025 30.27 854 25.22 3.4 38.1 56 -4.6 23.7
23:50 1025 30.27 854 25.22 3.4 38 56 -4.6 23.6
23:55 1025 30.27 854 25.22 3.2 37.8 55 -4.9 23.2
24:00 1025 30.27 854 25.22 3.3 38 54 -5 23.1